createdAt,value
2019-02-09T00:01:12.564Z,38.20
2019-02-09T00:03:41.760Z,38.20
2019-02-09T00:06:10.365Z,38.30
2019-02-09T00:08:39.223Z,38.30
2019-02-09T00:11:09.780Z,38.30
2019-02-09T00:13:38.453Z,38.40
2019-02-09T00:16:07.230Z,38.50
2019-02-09T00:18:36.184Z,38.50
2019-02-09T00:21:05.405Z,38.60
2019-02-09T00:23:34.633Z,38.60
2019-02-09T00:26:03.229Z,38.60
2019-02-09T00:28:32.615Z,38.50
2019-02-09T00:31:01.078Z,38.70
2019-02-09T00:33:32.013Z,38.70
2019-02-09T00:36:02.784Z,38.70
2019-02-09T00:38:31.552Z,38.70
2019-02-09T00:41:00.502Z,38.70
2019-02-09T00:43:29.491Z,38.60
2019-02-09T00:46:01.396Z,38.70
2019-02-09T00:48:30.810Z,38.70
2019-02-09T00:50:59.386Z,38.70
2019-02-09T00:53:48.157Z,38.60
2019-02-09T00:56:17.142Z,39.60
2019-02-09T00:58:46.025Z,38.60
2019-02-09T01:01:14.968Z,38.60
2019-02-09T01:03:43.514Z,38.60
2019-02-09T01:06:12.018Z,38.60
2019-02-09T01:08:40.573Z,38.60
2019-02-09T01:11:09.421Z,38.60
2019-02-09T01:13:38.455Z,38.60
2019-02-09T01:16:07.547Z,38.60
2019-02-09T01:18:36.333Z,38.60
2019-02-09T01:21:05.327Z,38.60
2019-02-09T01:23:35.088Z,38.50
2019-02-09T01:26:03.980Z,38.50
2019-02-09T01:28:33.133Z,38.60
2019-02-09T01:31:01.574Z,38.60
2019-02-09T01:33:30.809Z,38.60
2019-02-09T01:35:59.329Z,38.60
2019-02-09T01:38:28.379Z,38.50
2019-02-09T01:40:57.371Z,38.60
2019-02-09T01:43:26.371Z,38.20
2019-02-09T01:45:55.356Z,37.40
2019-02-09T01:48:24.333Z,37.00
2019-02-09T01:50:53.620Z,37.10
2019-02-09T01:53:22.755Z,36.90
2019-02-09T01:55:51.229Z,36.80
2019-02-09T01:58:20.017Z,36.60
2019-02-09T02:00:49.120Z,36.70
2019-02-09T02:03:17.793Z,36.60
2019-02-09T02:05:48.619Z,36.70
2019-02-09T02:08:20.387Z,36.70
2019-02-09T02:10:49.614Z,36.50
2019-02-09T02:13:19.303Z,36.60
2019-02-09T02:15:49.126Z,36.70
2019-02-09T02:18:18.527Z,36.70
2019-02-09T02:20:47.001Z,36.70
2019-02-09T02:23:16.201Z,36.70
2019-02-09T02:25:45.502Z,36.70
2019-02-09T02:28:14.496Z,36.70
2019-02-09T02:30:44.164Z,36.70
2019-02-09T02:33:13.958Z,36.70
2019-02-09T02:35:46.393Z,36.70
2019-02-09T02:38:14.967Z,36.80
2019-02-09T02:40:43.974Z,36.80
2019-02-09T02:43:13.267Z,36.80
2019-02-09T02:45:41.846Z,36.80
2019-02-09T02:48:10.741Z,36.80
2019-02-09T02:50:39.738Z,36.90
2019-02-09T02:53:08.308Z,36.90
2019-02-09T02:55:37.016Z,36.90
2019-02-09T02:58:05.571Z,36.90
2019-02-09T03:00:34.410Z,37.70
2019-02-09T03:03:03.048Z,37.00
2019-02-09T03:05:31.525Z,37.00
2019-02-09T03:08:00.023Z,37.00
2019-02-09T03:10:28.610Z,37.00
2019-02-09T03:12:57.294Z,37.00
2019-02-09T03:15:33.044Z,37.00
2019-02-09T03:18:02.056Z,37.10
2019-02-09T03:20:31.029Z,37.10
2019-02-09T03:22:59.534Z,37.10
2019-02-09T03:25:29.624Z,37.10
2019-02-09T03:27:58.702Z,37.10
2019-02-09T03:30:27.619Z,37.20
2019-02-09T03:32:56.077Z,37.80
2019-02-09T03:35:24.596Z,37.10
2019-02-09T03:37:53.400Z,37.10
2019-02-09T03:40:22.887Z,37.10
2019-02-09T03:42:51.354Z,37.10
2019-02-09T03:45:21.459Z,37.10
2019-02-09T03:47:51.433Z,37.10
2019-02-09T03:50:22.331Z,37.10
2019-02-09T03:52:52.008Z,37.10
2019-02-09T03:55:22.591Z,37.10
2019-02-09T03:57:51.355Z,37.10
2019-02-09T04:00:27.416Z,37.10
2019-02-09T04:02:56.965Z,37.00
2019-02-09T04:05:27.785Z,37.00
2019-02-09T04:07:56.848Z,37.00
2019-02-09T04:10:26.548Z,37.00
2019-02-09T04:12:55.207Z,37.00
2019-02-09T04:15:24.951Z,37.00
2019-02-09T04:17:54.482Z,36.90
2019-02-09T04:20:23.860Z,36.90
2019-02-09T04:22:52.654Z,36.90
2019-02-09T04:25:21.696Z,36.80
2019-02-09T04:27:50.269Z,36.90
2019-02-09T04:30:20.385Z,36.90
2019-02-09T04:32:49.329Z,36.90
2019-02-09T04:35:18.120Z,36.90
2019-02-09T04:37:47.031Z,36.90
2019-02-09T04:40:17.235Z,37.00
2019-02-09T04:42:46.134Z,37.00
2019-02-09T04:45:16.454Z,37.00
2019-02-09T04:47:44.924Z,37.00
2019-02-09T04:50:14.228Z,37.10
2019-02-09T04:52:43.021Z,37.00
2019-02-09T04:55:13.654Z,37.00
2019-02-09T04:57:42.647Z,37.00
2019-02-09T05:00:13.114Z,37.00
2019-02-09T05:02:42.057Z,37.10
2019-02-09T05:05:13.631Z,37.70
2019-02-09T05:07:42.608Z,37.10
2019-02-09T05:10:16.217Z,37.00
2019-02-09T05:12:44.698Z,37.00
2019-02-09T05:15:14.163Z,37.00
2019-02-09T05:17:42.633Z,37.00
2019-02-09T05:20:12.311Z,37.00
2019-02-09T05:22:40.774Z,36.90
2019-02-09T05:25:10.352Z,36.90
2019-02-09T05:27:41.929Z,36.90
2019-02-09T05:30:14.759Z,36.90
2019-02-09T05:32:43.286Z,36.90
2019-02-09T05:35:11.833Z,36.80
2019-02-09T05:37:40.316Z,36.90
2019-02-09T05:40:12.793Z,36.90
2019-02-09T05:42:41.345Z,36.90
2019-02-09T05:45:14.116Z,36.90
2019-02-09T05:47:42.580Z,36.90
2019-02-09T05:50:12.456Z,36.90
2019-02-09T05:52:41.322Z,36.80
2019-02-09T05:55:10.195Z,36.80
2019-02-09T05:57:38.778Z,36.90
2019-02-09T06:00:11.768Z,36.80
2019-02-09T06:02:40.315Z,36.90
2019-02-09T06:05:09.524Z,36.90
2019-02-09T06:07:37.993Z,36.80
2019-02-09T06:10:14.277Z,36.70
2019-02-09T06:12:42.751Z,36.80
2019-02-09T06:15:12.843Z,37.10
2019-02-09T06:17:41.378Z,36.90
2019-02-09T06:20:14.399Z,36.90
2019-02-09T06:22:42.914Z,37.00
2019-02-09T06:25:14.689Z,37.00
2019-02-09T06:27:43.571Z,37.00
2019-02-09T06:30:13.813Z,37.00
2019-02-09T06:32:42.350Z,37.00
2019-02-09T06:35:11.209Z,37.00
2019-02-09T06:37:39.687Z,37.10
2019-02-09T06:40:09.957Z,37.00
2019-02-09T06:42:38.456Z,37.00
2019-02-09T06:45:08.576Z,37.00
2019-02-09T06:47:37.142Z,37.00
2019-02-09T06:50:07.368Z,37.00
2019-02-09T06:52:36.156Z,36.90
2019-02-09T06:55:08.527Z,37.00
2019-02-09T06:57:38.438Z,37.00
2019-02-09T07:00:09.085Z,37.00
2019-02-09T07:02:37.854Z,37.00
2019-02-09T07:05:07.966Z,37.10
2019-02-09T07:07:36.507Z,37.10
2019-02-09T07:10:06.610Z,37.10
2019-02-09T07:12:35.117Z,37.10
2019-02-09T07:15:05.374Z,37.10
2019-02-09T07:17:33.856Z,37.10
2019-02-09T07:20:04.576Z,37.00
2019-02-09T07:22:33.168Z,37.10
2019-02-09T07:25:01.777Z,37.20
2019-02-09T07:27:30.701Z,37.10
2019-02-09T07:29:59.272Z,37.20
2019-02-09T07:32:27.786Z,37.20
2019-02-09T07:34:56.410Z,37.10
2019-02-09T07:37:26.620Z,37.20
2019-02-09T07:39:55.514Z,37.20
2019-02-09T07:42:24.302Z,37.10
2019-02-09T07:44:53.412Z,37.10
2019-02-09T07:47:21.884Z,37.00
2019-02-09T07:49:50.975Z,37.80
2019-02-09T07:52:19.972Z,37.00
2019-02-09T07:54:48.909Z,37.00
2019-02-09T07:57:17.585Z,37.00
2019-02-09T07:59:46.644Z,36.90
2019-02-09T08:02:15.351Z,36.90
2019-02-09T08:04:44.327Z,36.90
2019-02-09T08:07:13.314Z,36.90
2019-02-09T08:09:42.308Z,36.90
2019-02-09T08:12:11.414Z,36.90
2019-02-09T08:14:39.992Z,36.90
2019-02-09T08:17:09.401Z,36.90
2019-02-09T08:19:37.975Z,36.90
2019-02-09T08:22:06.965Z,37.00
2019-02-09T08:24:36.161Z,37.00
2019-02-09T08:27:04.757Z,36.90
2019-02-09T08:29:33.751Z,37.00
2019-02-09T08:32:02.427Z,37.00
2019-02-09T08:34:31.320Z,37.00
2019-02-09T08:37:00.256Z,36.90
2019-02-09T08:39:29.234Z,36.90
2019-02-09T08:41:58.101Z,36.80
2019-02-09T08:44:26.776Z,36.90
2019-02-09T08:46:55.682Z,36.90
2019-02-09T08:49:24.555Z,36.90
2019-02-09T08:51:53.071Z,37.00
2019-02-09T08:54:21.607Z,36.80
2019-02-09T08:56:50.096Z,36.90
2019-02-09T08:59:18.762Z,37.00
2019-02-09T09:01:47.218Z,36.90
2019-02-09T09:04:16.148Z,37.50
2019-02-09T09:06:45.116Z,36.70
2019-02-09T09:09:15.647Z,36.80
2019-02-09T09:11:44.608Z,36.80
2019-02-09T09:14:13.782Z,36.80
2019-02-09T09:16:42.671Z,36.70
2019-02-09T09:19:11.656Z,36.80
2019-02-09T09:21:41.734Z,36.80
2019-02-09T09:24:10.978Z,36.80
2019-02-09T09:26:41.599Z,36.80
2019-02-09T09:29:10.505Z,37.10
2019-02-09T09:31:41.005Z,37.10
2019-02-09T09:34:10.183Z,37.00
2019-02-09T09:36:39.217Z,37.10
2019-02-09T09:39:08.937Z,37.00
2019-02-09T09:41:37.535Z,37.00
2019-02-09T09:44:06.448Z,36.90
2019-02-09T09:46:37.618Z,37.50
2019-02-09T09:49:06.949Z,37.50
2019-02-09T09:51:35.528Z,36.90
2019-02-09T09:54:04.430Z,36.80
2019-02-09T09:56:33.042Z,36.90
2019-02-09T09:59:02.000Z,37.00
2019-02-09T10:01:30.784Z,37.00
2019-02-09T10:03:59.492Z,37.10
2019-02-09T10:06:28.467Z,37.40
2019-02-09T10:08:59.431Z,37.60
2019-02-09T10:11:29.916Z,37.60
2019-02-09T10:14:08.457Z,37.60
2019-02-09T10:16:29.255Z,37.60
2019-02-09T10:18:58.355Z,37.60
2019-02-09T10:21:26.935Z,37.50
2019-02-09T10:23:56.341Z,37.50
2019-02-09T10:26:24.916Z,37.70
2019-02-09T10:28:56.111Z,38.20
2019-02-09T10:31:25.162Z,38.50
2019-02-09T10:33:53.762Z,38.90
2019-02-09T10:36:22.845Z,39.90
2019-02-09T10:38:51.722Z,39.40
2019-02-09T10:41:20.520Z,40.20
2019-02-09T10:43:49.097Z,41.10
2019-02-09T10:46:17.960Z,41.50
2019-02-09T10:48:46.437Z,42.00
2019-02-09T10:51:15.418Z,42.70
2019-02-09T10:53:44.145Z,42.30
2019-02-09T10:56:13.107Z,42.20
2019-02-09T10:58:42.036Z,42.30
2019-02-09T11:01:11.750Z,42.10
2019-02-09T11:03:40.364Z,41.90
2019-02-09T11:06:09.421Z,43.30
2019-02-09T11:08:38.520Z,44.50
2019-02-09T11:11:07.330Z,44.00
2019-02-09T11:13:36.050Z,45.30
2019-02-09T11:16:04.997Z,44.60
2019-02-09T11:18:33.573Z,44.40
2019-02-09T11:21:02.350Z,44.60
2019-02-09T11:23:31.268Z,44.00
2019-02-09T11:25:59.843Z,43.80
2019-02-09T11:28:28.519Z,44.50
2019-02-09T11:30:57.107Z,43.70
2019-02-09T11:33:25.680Z,43.60
2019-02-09T11:35:57.861Z,43.40
2019-02-09T11:38:26.344Z,43.30
2019-02-09T11:40:54.848Z,43.20
2019-02-09T11:43:23.418Z,43.20
2019-02-09T11:45:51.959Z,42.80
2019-02-09T11:48:20.440Z,43.00
2019-02-09T11:50:48.962Z,42.50
2019-02-09T11:53:17.441Z,42.50
2019-02-09T11:55:45.943Z,42.50
2019-02-09T11:58:14.424Z,42.20
2019-02-09T12:00:44.658Z,42.10
2019-02-09T12:03:15.913Z,42.10
2019-02-09T12:05:43.384Z,42.00
2019-02-09T12:08:11.946Z,41.80
2019-02-09T12:10:40.432Z,41.80
2019-02-09T12:13:09.343Z,41.70
2019-02-09T12:15:38.262Z,42.20
2019-02-09T12:18:07.835Z,41.50
2019-02-09T12:20:36.317Z,41.50
2019-02-09T12:23:04.859Z,41.30
2019-02-09T12:25:36.979Z,41.20
2019-02-09T12:28:06.659Z,41.20
2019-02-09T12:30:36.120Z,41.20
2019-02-09T12:33:05.469Z,41.20
2019-02-09T12:35:33.963Z,41.20
2019-02-09T12:38:02.440Z,41.10
2019-02-09T12:40:31.822Z,41.00
2019-02-09T12:43:00.301Z,41.60
2019-02-09T12:45:29.794Z,40.90
2019-02-09T12:47:58.320Z,41.00
2019-02-09T12:50:27.447Z,40.70
2019-02-09T12:52:55.929Z,40.40
2019-02-09T12:55:24.436Z,39.80
2019-02-09T12:57:52.897Z,37.50
2019-02-09T13:00:25.628Z,37.10
2019-02-09T13:02:55.023Z,37.40
2019-02-09T13:05:23.505Z,37.40
2019-02-09T13:07:52.053Z,37.40
2019-02-09T13:10:23.779Z,37.40
2019-02-09T13:12:52.264Z,37.40
2019-02-09T13:15:24.877Z,37.50
2019-02-09T13:17:53.721Z,37.60
2019-02-09T13:20:23.378Z,37.60
2019-02-09T13:22:52.291Z,37.60
2019-02-09T13:25:20.776Z,37.50
2019-02-09T13:27:49.356Z,37.60
2019-02-09T13:30:19.296Z,37.50
2019-02-09T13:32:54.093Z,37.60
2019-02-09T13:35:23.008Z,38.20
2019-02-09T13:37:51.524Z,38.20
2019-02-09T13:40:21.159Z,38.10
2019-02-09T13:42:51.417Z,38.00
2019-02-09T13:45:21.618Z,38.10
2019-02-09T13:47:50.080Z,37.60
2019-02-09T13:50:18.576Z,37.60
2019-02-09T13:52:47.103Z,38.80
2019-02-09T13:55:15.720Z,39.00
2019-02-09T13:57:44.266Z,39.10
2019-02-09T14:00:17.126Z,39.30
2019-02-09T14:02:45.807Z,39.40
2019-02-09T14:05:14.727Z,39.50
2019-02-09T14:07:43.318Z,39.60
2019-02-09T14:10:13.419Z,39.70
2019-02-09T14:12:41.916Z,39.80
2019-02-09T14:15:12.161Z,39.90
2019-02-09T14:17:41.021Z,40.00
2019-02-09T14:20:10.588Z,40.00
2019-02-09T14:22:39.056Z,40.10
2019-02-09T14:25:08.644Z,40.10
2019-02-09T14:27:37.242Z,40.20
2019-02-09T14:30:07.434Z,40.10
2019-02-09T14:32:36.004Z,40.30
2019-02-09T14:35:05.768Z,40.40
2019-02-09T14:37:34.267Z,40.40
2019-02-09T14:40:02.740Z,40.50
2019-02-09T14:42:31.266Z,40.50
2019-02-09T14:44:59.872Z,40.70
2019-02-09T14:47:28.497Z,40.90
2019-02-09T14:49:57.029Z,40.90
2019-02-09T14:52:25.525Z,40.90
2019-02-09T14:54:54.031Z,40.90
2019-02-09T14:57:22.513Z,40.90
2019-02-09T14:59:54.862Z,40.70
2019-02-09T15:02:23.307Z,40.60
2019-02-09T15:04:51.820Z,40.60
2019-02-09T15:07:20.658Z,40.60
2019-02-09T15:09:49.267Z,40.60
2019-02-09T15:12:17.791Z,40.50
2019-02-09T15:14:46.332Z,40.50
2019-02-09T15:17:14.839Z,40.50
2019-02-09T15:19:43.785Z,40.40
2019-02-09T15:22:12.281Z,40.40
2019-02-09T15:24:40.811Z,40.30
2019-02-09T15:27:09.399Z,40.60
2019-02-09T15:29:37.943Z,40.70
2019-02-09T15:32:06.491Z,40.90
2019-02-09T15:34:35.021Z,40.90
2019-02-09T15:37:03.533Z,40.90
2019-02-09T15:39:32.034Z,40.90
2019-02-09T15:42:00.532Z,41.00
2019-02-09T15:44:29.027Z,40.90
2019-02-09T15:46:57.600Z,40.80
2019-02-09T15:49:26.122Z,40.60
2019-02-09T15:51:54.616Z,40.50
2019-02-09T15:54:23.139Z,40.30
2019-02-09T15:56:51.615Z,40.20
2019-02-09T15:59:20.119Z,40.30
2019-02-09T16:01:48.601Z,40.30
2019-02-09T16:04:18.231Z,41.00
2019-02-09T16:06:46.982Z,41.30
2019-02-09T16:09:15.592Z,41.20
2019-02-09T16:11:44.133Z,41.00
2019-02-09T16:14:13.472Z,41.30
2019-02-09T16:16:43.456Z,42.00
2019-02-09T16:19:11.935Z,41.80
2019-02-09T16:21:40.443Z,41.90
2019-02-09T16:24:08.920Z,42.20
2019-02-09T16:26:37.525Z,42.20
2019-02-09T16:29:06.002Z,41.90
2019-02-09T16:31:35.986Z,43.30
2019-02-09T16:34:04.583Z,42.20
2019-02-09T16:36:33.116Z,41.70
2019-02-09T16:39:01.689Z,41.90
2019-02-09T16:41:30.148Z,41.40
2019-02-09T16:43:58.674Z,41.20
2019-02-09T16:46:30.203Z,41.10
2019-02-09T16:48:58.704Z,41.30
2019-02-09T16:51:27.175Z,41.00
2019-02-09T16:53:55.859Z,40.90
2019-02-09T16:56:24.323Z,41.70
2019-02-09T16:58:52.878Z,40.90
2019-02-09T17:01:24.697Z,40.70
2019-02-09T17:03:53.255Z,40.80
2019-02-09T17:06:23.063Z,41.00
2019-02-09T17:08:51.827Z,40.80
2019-02-09T17:11:20.720Z,40.70
2019-02-09T17:13:49.508Z,40.50
2019-02-09T17:16:19.378Z,40.50
2019-02-09T17:18:49.435Z,40.40
2019-02-09T17:21:18.236Z,40.60
2019-02-09T17:23:46.966Z,40.70
2019-02-09T17:26:15.803Z,40.80
2019-02-09T17:28:44.751Z,40.90
2019-02-09T17:31:13.295Z,40.90
2019-02-09T17:33:41.868Z,40.90
2019-02-09T17:36:10.418Z,41.00
2019-02-09T17:38:39.065Z,41.00
2019-02-09T17:41:07.815Z,41.10
2019-02-09T17:43:36.375Z,41.20
2019-02-09T17:46:09.673Z,41.20
2019-02-09T17:48:38.283Z,41.20
2019-02-09T17:51:06.838Z,41.30
2019-02-09T17:53:35.383Z,41.30
2019-02-09T17:56:03.962Z,41.20
2019-02-09T17:58:32.455Z,41.30
2019-02-09T18:01:02.698Z,41.50
2019-02-09T18:03:34.302Z,41.70
2019-02-09T18:06:02.861Z,42.00
2019-02-09T18:08:31.547Z,42.10
2019-02-09T18:11:00.509Z,42.10
2019-02-09T18:13:29.130Z,42.60
2019-02-09T18:15:58.133Z,42.30
2019-02-09T18:18:26.922Z,42.50
2019-02-09T18:20:56.218Z,42.30
2019-02-09T18:23:24.687Z,42.20
2019-02-09T18:25:56.234Z,42.00
2019-02-09T18:28:24.701Z,42.10
2019-02-09T18:30:53.214Z,42.00
2019-02-09T18:33:21.803Z,42.10
2019-02-09T18:35:50.331Z,41.90
2019-02-09T18:38:18.915Z,41.90
2019-02-09T18:40:50.745Z,41.90
2019-02-09T18:43:19.410Z,41.70
2019-02-09T18:45:48.060Z,41.40
2019-02-09T18:48:16.765Z,42.00
2019-02-09T18:50:48.609Z,42.10
2019-02-09T18:53:17.158Z,43.00
2019-02-09T18:55:45.800Z,42.80
2019-02-09T18:58:14.348Z,42.60
2019-02-09T19:00:42.902Z,42.50
2019-02-09T19:03:11.579Z,42.80
2019-02-09T19:05:40.062Z,44.40
2019-02-09T19:08:08.644Z,44.30
2019-02-09T19:10:52.250Z,44.30
2019-02-09T19:13:21.012Z,41.70
2019-02-09T19:15:50.359Z,37.30
2019-02-09T19:18:20.885Z,36.80
2019-02-09T19:20:51.274Z,37.20
2019-02-09T19:23:25.052Z,37.30
2019-02-09T19:25:52.246Z,37.50
2019-02-09T19:28:25.474Z,37.40
2019-02-09T19:30:57.326Z,37.40
2019-02-09T19:33:28.910Z,37.30
2019-02-09T19:36:02.070Z,37.10
2019-02-09T19:38:30.961Z,37.00
2019-02-09T19:40:59.516Z,36.70
2019-02-09T19:43:28.005Z,36.60
2019-02-09T19:45:56.613Z,36.70
2019-02-09T19:48:25.076Z,36.70
2019-02-09T19:50:53.606Z,36.50
2019-02-09T19:53:22.092Z,37.20
2019-02-09T19:55:50.573Z,36.50
2019-02-09T19:58:19.258Z,37.10
2019-02-09T20:00:50.786Z,36.80
2019-02-09T20:03:19.418Z,36.70
2019-02-09T20:05:47.892Z,36.70
2019-02-09T20:08:16.410Z,36.80
2019-02-09T20:10:45.018Z,36.70
2019-02-09T20:13:13.972Z,37.10
2019-02-09T20:15:42.497Z,36.70
2019-02-09T20:18:11.670Z,36.60
2019-02-09T20:20:46.829Z,36.60
2019-02-09T20:23:10.340Z,36.70
2019-02-09T20:25:38.883Z,36.40
2019-02-09T20:28:07.468Z,36.30
2019-02-09T20:30:38.027Z,36.50
2019-02-09T20:33:06.529Z,36.60
2019-02-09T20:35:35.064Z,36.40
2019-02-09T20:38:04.339Z,36.20
2019-02-09T20:40:33.898Z,36.00
2019-02-09T20:43:04.363Z,35.50
2019-02-09T20:45:33.298Z,35.90
2019-02-09T20:48:02.518Z,36.00
2019-02-09T20:50:31.060Z,36.00
2019-02-09T20:52:59.572Z,36.00
2019-02-09T20:55:28.291Z,36.00
2019-02-09T20:57:56.796Z,35.90
2019-02-09T21:00:26.914Z,36.00
2019-02-09T21:02:55.493Z,36.00
2019-02-09T21:05:24.029Z,35.90
2019-02-09T21:07:52.569Z,36.00
2019-02-09T21:10:22.612Z,35.80
2019-02-09T21:12:51.112Z,36.10
2019-02-09T21:15:20.795Z,36.10
2019-02-09T21:17:49.365Z,36.00
2019-02-09T21:20:17.855Z,36.10
2019-02-09T21:22:46.375Z,36.00
2019-02-09T21:25:28.787Z,35.90
2019-02-09T21:27:57.521Z,35.80
2019-02-09T21:30:27.657Z,35.70
2019-02-09T21:32:56.176Z,35.80
2019-02-09T21:35:24.776Z,35.80
2019-02-09T21:37:53.320Z,35.80
2019-02-09T21:40:22.968Z,36.10
2019-02-09T21:42:51.490Z,36.40
2019-02-09T21:45:20.784Z,36.40
2019-02-09T21:47:49.338Z,36.50
2019-02-09T21:50:19.495Z,36.50
2019-02-09T21:52:48.051Z,35.80
2019-02-09T21:55:17.823Z,36.00
2019-02-09T21:57:46.285Z,36.00
2019-02-09T22:00:19.126Z,36.60
2019-02-09T22:02:47.675Z,36.70
2019-02-09T22:05:16.183Z,36.70
2019-02-09T22:07:44.701Z,36.90
2019-02-09T22:10:14.841Z,37.00
2019-02-09T22:12:43.403Z,37.40
2019-02-09T22:15:15.777Z,37.60
2019-02-09T22:17:44.349Z,38.00
2019-02-09T22:20:14.465Z,38.00
2019-02-09T22:22:42.961Z,38.20
2019-02-09T22:25:15.319Z,38.40
2019-02-09T22:27:44.386Z,38.40
2019-02-09T22:30:14.482Z,38.60
2019-02-09T22:32:43.096Z,38.60
2019-02-09T22:35:11.724Z,38.80
2019-02-09T22:37:40.248Z,38.70
2019-02-09T22:40:10.404Z,38.70
2019-02-09T22:42:38.956Z,38.90
2019-02-09T22:45:09.096Z,38.90
2019-02-09T22:47:37.707Z,38.90
2019-02-09T22:50:07.859Z,38.90
2019-02-09T22:52:36.405Z,39.10
2019-02-09T22:55:06.552Z,39.50
2019-02-09T22:57:35.093Z,39.20
2019-02-09T23:00:08.840Z,39.20
2019-02-09T23:02:37.465Z,39.20
2019-02-09T23:15:01.090Z,39.20
2019-02-09T23:17:29.730Z,40.20
2019-02-09T23:19:58.232Z,40.30
2019-02-09T23:22:26.720Z,40.40
